Detall de PIREP

Printer-friendly versionPDF version

[2012/11/28 09:36:00]
Flight IATA:CT2105
Pilot Number:042
Company ICAO:CAT
Aircraft Type:B738/F
PAX:126
Departing Airport: LEBB
Destination Airport: LEVC
Alternate Airport:LEBL
Online: VATSIM
Route:PPN UM601 MARIO POSSY UN862 MLA UN860 SAURA
Flight Level:F310
No Slew and time accel
No pause
Crash detect
Detect pilot in Cockpit between each 30 and 45 minutes
09:36 Zero fuel Weight: 115600 Lbs, Fuel Weight: 46056 Lbs
09:36 VATSIM:LEBB 280900Z 32009KT 290V010 8000 -RA FEW020 SCT035TCU BKN050 09/06 Q1008 TEMPO 4000 SHRA
09:36 VATSIM:LEVC 280900Z 26014KT 9999 FEW035 10/01 Q1002 NOSIG
09:36 VOICE CATALONIAN/ROUTE CT2105
09:44 Parking Brakes off
09:51 Take-off
09:51 Take off Weight: 160896 Lbs
09:51 Wind: 332º @ 005 Knots Heading: 297º
09:51 POS N43º 18´ 25´´ W002º 55´ 33´´
09:51 Gear Up: 177 Knots
09:51 Flaps:5 at 177 Knots
09:51 Flaps:4 at 161 Knots
09:51 Flaps:3 at152 Knots
09:52 Flaps:2 at 154 Knots
09:52 Flaps:1 at 206 Knots
09:53 Flaps:0 at 239 Knots
10:06 Wind:000º@076 Knots Heading: 114º Ground Speed: 487 Knots Altitude 26607 ft
10:09 TOC
10:09 Fuel Weight: 41282 Lb
10:21 Wind:005º@056 Knots Heading: 179º Ground Speed: 512 Knots Altitude 30629 ft
10:25 TOD
10:25 Fuel Weight: 39705 Lb
10:36 Wind:338º@037 Knots Heading: 185º Ground Speed: 319 Knots Altitude 10022 ft
10:39 Flaps:1 at 221 Knots
10:41 Flaps:2 at 189 Knots
10:42 Flaps:3 at 178 Knots
10:47 Flaps:4 at 165 Knots
10:47 Gear Down: 165 Knots
10:47 Flaps:5 at 160 Knots
10:50 Flaps:7 at 147 Knots
10:50 TouchDown:Rate -236 ft/min Speed: 131 Knots
10:51 Wind:263º@012 Knots Heading: 291º Ground Speed: 084 Knots Altitude 246 ft
10:51 VATSIM:LEVC 281030Z 27014KT 9999 FEW035 12/01 Q1002 NOSIG
10:51 Land
10:51 Wind:263º@012 Knots
10:51 Heading: 296º
10:51 Flight Duration: 01:00
10:51 Landing Weight: 153887 Lbs
10:51 POS N39º 29´ 31´´ W000º 29´ 22´´
10:54 Parking brakes on
10:54 Block to Block Duration: 01:10
10:54 Final Fuel: 37985 Lbls
10:54 Spent Fuel: 8071 Lbls
10:54 Flight Length: 370 NM
10:54 TOD Land Length: 124 NM

Exportar CSV

Powered by Drupal - Modified by Danger4k